Time;durP1;ratioP1;P1;durP2;ratioP2;P2;SDS_P1;SDS_P2;PMS_P1;PMS_P2;Temp;Humidity;BMP_temperature;BMP_pressure;BME280_temperature;BME280_humidity;BME280_pressure;Samples;Min_cycle;Max_cycle;Signal;HPM_P1;HPM_P2
2022/06/12 00:01:05;;;;;;;3.20;1.70;;;19.70;95.60;;;;;;5027095;28;20026;-74
2022/06/12 00:03:34;;;;;;;2.97;1.40;;;19.70;95.70;;;;;;5029085;28;20764;-74
2022/06/12 00:06:02;;;;;;;4.57;1.67;;;19.70;95.70;;;;;;5025746;28;20087;-75
2022/06/12 00:08:30;;;;;;;3.45;1.70;;;19.60;95.80;;;;;;5021697;28;20048;-75
2022/06/12 00:10:58;;;;;;;3.40;1.98;;;19.70;95.70;;;;;;5022009;28;20120;-75
2022/06/12 00:13:29;;;;;;;4.38;1.63;;;19.70;95.80;;;;;;5024216;28;20052;-75
2022/06/12 00:15:55;;;;;;;4.13;1.63;;;19.70;95.80;;;;;;5029669;28;20033;-75
2022/06/12 00:18:21;;;;;;;7.63;2.85;;;19.70;95.90;;;;;;5030001;28;20116;-75
2022/06/12 00:20:47;;;;;;;2.47;1.48;;;19.60;95.90;;;;;;5020534;28;20042;-74
2022/06/12 00:23:16;;;;;;;3.35;1.90;;;19.80;95.90;;;;;;5025444;28;20100;-74
2022/06/12 00:25:42;;;;;;;2.85;1.73;;;19.70;95.80;;;;;;5023829;28;20040;-75
2022/06/12 00:28:08;;;;;;;4.15;2.00;;;19.80;95.60;;;;;;5025280;28;20033;-75
2022/06/12 00:30:34;;;;;;;4.40;2.45;;;19.90;95.60;;;;;;5024397;28;20044;-75
2022/06/12 00:33:00;;;;;;;4.40;1.95;;;19.60;96.00;;;;;;5032462;28;20033;-75
2022/06/12 00:35:30;;;;;;;2.92;1.42;;;19.80;95.70;;;;;;5025781;28;20095;-74
2022/06/12 00:37:56;;;;;;;3.38;1.90;;;19.80;95.60;;;;;;5028473;28;20033;-75
2022/06/12 00:40:23;;;;;;;4.45;1.88;;;19.60;96.00;;;;;;5023251;28;20029;-73
2022/06/12 00:42:58;;;;;;;4.97;1.90;;;19.40;96.40;;;;;;5032852;28;20108;-74
2022/06/12 00:45:39;;;;;;;4.60;2.08;;;19.40;96.40;;;;;;5023626;28;20063;-74
2022/06/12 00:48:12;;;;;;;3.65;1.88;;;19.50;96.40;;;;;;5015569;28;20026;-75
2022/06/12 00:50:43;;;;;;;6.45;1.90;;;19.60;96.30;;;;;;5029739;28;20075;-74
2022/06/12 00:53:14;;;;;;;3.38;1.90;;;19.50;96.40;;;;;;5026107;28;20106;-75
2022/06/12 00:55:55;;;;;;;4.63;1.98;;;19.50;96.50;;;;;;5028684;28;20061;-74
2022/06/12 00:58:25;;;;;;;4.13;1.80;;;19.50;96.60;;;;;;5025613;28;20381;-74
2022/06/12 01:00:52;;;;;;;2.63;1.42;;;19.30;96.70;;;;;;5023652;28;20381;-74
2022/06/12 01:03:19;;;;;;;6.97;2.00;;;19.40;96.60;;;;;;5017827;28;20041;-75
2022/06/12 01:08:29;;;;;;;4.53;2.20;;;19.40;96.70;;;;;;5024064;28;20100;-75
2022/06/12 01:11:00;;;;;;;4.65;1.85;;;19.40;97.00;;;;;;5022931;28;20029;-74
2022/06/12 01:13:41;;;;;;;5.40;1.63;;;19.20;97.00;;;;;;5029463;28;20120;-74
2022/06/12 01:16:12;;;;;;;6.10;1.77;;;19.00;97.60;;;;;;5022802;28;20022;-75
2022/06/12 01:18:44;;;;;;;3.63;1.63;;;18.70;98.20;;;;;;5032103;28;20124;-74
2022/06/12 01:21:47;;;;;;;3.67;2.05;;;18.40;98.80;;;;;;5021862;28;20033;-74
2022/06/12 01:25:04;;;;;;;3.05;1.80;;;18.50;98.80;;;;;;5024613;28;20026;-75
2022/06/12 01:27:39;;;;;;;4.90;1.90;;;18.70;98.50;;;;;;5025678;28;20037;-74
2022/06/12 01:30:18;;;;;;;4.25;1.80;;;19.10;97.70;;;;;;5029584;28;20094;-74
2022/06/12 01:33:11;;;;;;;4.85;2.05;;;19.30;97.50;;;;;;5030947;28;20036;-74
2022/06/12 01:35:50;;;;;;;5.60;1.80;;;19.30;97.70;;;;;;5028302;28;20135;-75
2022/06/12 01:38:34;;;;;;;6.70;2.05;;;19.20;97.70;;;;;;5024743;28;20040;-74
2022/06/12 01:41:31;;;;;;;2.85;1.55;;;19.00;97.90;;;;;;5030430;28;20529;-74
2022/06/12 01:44:27;;;;;;;4.55;2.03;;;18.90;98.00;;;;;;5026136;28;20087;-74
2022/06/12 01:47:20;;;;;;;4.20;1.85;;;19.00;97.80;;;;;;5024106;28;20041;-74
2022/06/12 01:50:02;;;;;;;3.30;1.77;;;19.10;97.70;;;;;;5028021;28;20080;-75
2022/06/12 01:52:51;;;;;;;5.78;1.80;;;18.80;98.30;;;;;;5029884;28;20393;-74
2022/06/12 01:55:40;;;;;;;4.10;1.90;;;18.50;98.90;;;;;;5019131;28;20550;-75
2022/06/12 01:58:45;;;;;;;4.47;1.80;;;18.20;99.60;;;;;;5023932;28;20033;-75
2022/06/12 02:01:43;;;;;;;3.70;1.70;;;18.50;98.90;;;;;;5022887;28;20061;-74
2022/06/12 02:04:11;;;;;;;4.25;2.08;;;18.40;99.30;;;;;;5020290;28;20036;-74
2022/06/12 02:07:08;;;;;;;4.13;2.22;;;18.30;99.70;;;;;;5019942;28;20041;-74
2022/06/12 02:09:55;;;;;;;5.18;1.98;;;18.30;99.60;;;;;;5025971;28;20120;-73
2022/06/12 02:15:25;;;;;;;8.60;2.30;;;18.40;99.40;;;;;;5025370;28;20164;-75
2022/06/12 02:18:01;;;;;;;3.92;1.95;;;18.50;99.20;;;;;;5030001;28;20053;-75
2022/06/12 02:20:33;;;;;;;3.95;2.08;;;18.40;99.10;;;;;;5022717;28;20034;-74
2022/06/12 02:23:01;;;;;;;3.35;1.85;;;18.40;99.40;;;;;;5027509;28;20037;-74
2022/06/12 02:25:35;;;;;;;4.63;2.30;;;18.20;99.80;;;;;;5024337;28;20030;-74
2022/06/12 02:28:13;;;;;;;4.45;2.08;;;18.10;99.90;;;;;;5031760;28;20486;-75
2022/06/12 02:30:43;;;;;;;3.75;2.25;;;18.10;99.90;;;;;;5022008;28;20046;-74
2022/06/12 02:33:39;;;;;;;3.17;1.60;;;18.00;99.90;;;;;;5023007;28;20395;-74
2022/06/12 02:36:12;;;;;;;3.72;1.65;;;18.20;99.80;;;;;;5026160;28;20479;-74
2022/06/12 02:39:05;;;;;;;3.63;1.70;;;18.20;99.80;;;;;;5023970;28;20030;-74
2022/06/12 02:41:48;;;;;;;5.15;2.05;;;17.70;99.90;;;;;;5024449;28;20041;-74
2022/06/12 02:44:20;;;;;;;3.70;1.75;;;17.50;99.90;;;;;;5029552;28;20037;-74
2022/06/12 02:47:09;;;;;;;4.18;2.33;;;17.50;99.90;;;;;;5021818;28;20431;-74
2022/06/12 02:49:38;;;;;;;3.30;1.80;;;17.90;99.90;;;;;;5028901;28;20128;-74
2022/06/12 02:52:28;;;;;;;4.68;1.90;;;17.60;99.90;;;;;;5030140;28;20060;-75
2022/06/12 02:55:23;;;;;;;4.15;1.90;;;17.80;99.90;;;;;;5027132;28;20483;-74
2022/06/12 02:58:00;;;;;;;4.63;1.92;;;17.70;99.90;;;;;;5025535;28;20025;-74
2022/06/12 03:00:38;;;;;;;4.45;2.15;;;17.70;99.90;;;;;;5027642;28;20109;-73
2022/06/12 03:03:23;;;;;;;3.50;2.03;;;17.80;99.90;;;;;;5014636;28;20030;-74
2022/06/12 03:05:52;;;;;;;5.15;2.00;;;18.00;99.90;;;;;;5020258;28;20496;-74
2022/06/12 03:08:25;;;;;;;4.93;2.13;;;18.10;99.90;;;;;;5015116;28;20033;-74
2022/06/12 03:10:55;;;;;;;3.28;1.85;;;17.90;99.90;;;;;;5017217;28;20102;-74
2022/06/12 03:13:25;;;;;;;6.50;2.10;;;18.00;99.90;;;;;;5017847;28;20034;-74
2022/06/12 03:15:57;;;;;;;3.85;1.83;;;18.00;99.90;;;;;;5024774;28;20488;-74
2022/06/12 03:18:32;;;;;;;3.13;1.92;;;18.00;99.90;;;;;;5013335;28;20022;-74
2022/06/12 03:21:08;;;;;;;4.18;2.03;;;17.60;99.90;;;;;;5016561;28;20029;-74
2022/06/12 03:23:39;;;;;;;3.45;1.90;;;17.60;99.90;;;;;;5022438;28;20571;-74
2022/06/12 03:26:10;;;;;;;4.65;1.92;;;17.70;99.90;;;;;;5021185;28;20029;-74
2022/06/12 03:29:04;;;;;;;5.53;2.65;;;17.90;99.90;;;;;;5029869;28;20037;-74
2022/06/12 03:32:02;;;;;;;3.97;2.00;;;17.80;99.90;;;;;;5022345;28;20042;-74
2022/06/12 03:34:39;;;;;;;3.90;2.00;;;17.60;99.90;;;;;;5009289;28;20050;-74
2022/06/12 03:37:27;;;;;;;4.05;1.92;;;17.70;99.90;;;;;;5022856;28;20120;-74
2022/06/12 03:40:21;;;;;;;4.05;2.08;;;17.40;99.90;;;;;;5020032;28;20046;-74
2022/06/12 03:42:56;;;;;;;4.18;2.08;;;17.20;99.90;;;;;;5021977;28;20417;-74
2022/06/12 03:45:33;;;;;;;3.70;1.85;;;17.20;99.90;;;;;;5023377;28;20025;-74
2022/06/12 03:48:22;;;;;;;5.55;2.20;;;17.30;99.90;;;;;;5027038;28;20033;-74
2022/06/12 03:51:08;;;;;;;3.90;1.90;;;17.40;99.90;;;;;;5020673;28;20097;-74
2022/06/12 03:53:39;;;;;;;3.53;2.10;;;17.60;99.90;;;;;;5016018;28;20045;-74
2022/06/12 03:59:26;;;;;;;6.72;1.50;;;18.00;99.90;;;;;;5024386;28;20107;-74
2022/06/12 04:01:53;;;;;;;4.43;2.08;;;18.30;99.90;;;;;;5023944;28;20120;-74
2022/06/12 04:04:21;;;;;;;3.78;1.92;;;18.20;99.90;;;;;;5024390;28;20037;-74
2022/06/12 04:06:48;;;;;;;4.43;2.00;;;18.10;99.90;;;;;;5016263;28;20050;-74
2022/06/12 04:09:19;;;;;;;2.97;1.67;;;18.00;99.90;;;;;;5023018;28;20127;-74
2022/06/12 04:11:56;;;;;;;5.60;2.40;;;18.00;99.90;;;;;;5012785;28;20025;-74
2022/06/12 04:14:28;;;;;;;3.47;1.90;;;18.10;99.90;;;;;;5021245;28;20497;-74
2022/06/12 04:16:59;;;;;;;4.15;2.30;;;17.80;99.90;;;;;;5024285;28;20033;-74
2022/06/12 04:19:26;;;;;;;3.83;2.30;;;17.80;99.90;;;;;;5024909;28;20076;-74
2022/06/12 04:22:01;;;;;;;10.18;2.28;;;17.80;99.90;;;;;;5023457;28;20040;-74
2022/06/12 04:24:45;;;;;;;4.20;2.72;;;17.70;99.90;;;;;;5020919;28;20029;-74
2022/06/12 04:27:33;;;;;;;5.38;2.22;;;17.50;99.90;;;;;;5024576;28;20032;-73
2022/06/12 04:30:14;;;;;;;3.20;1.73;;;17.40;99.90;;;;;;5013150;28;20037;-73
2022/06/12 04:32:41;;;;;;;4.00;1.80;;;17.40;99.90;;;;;;5020649;28;20112;-74
2022/06/12 04:35:07;;;;;;;3.05;1.70;;;17.60;99.90;;;;;;5018829;28;20030;-73
2022/06/12 04:37:33;;;;;;;3.83;1.65;;;17.50;99.90;;;;;;5019070;28;20086;-74
2022/06/12 04:40:01;;;;;;;5.25;2.22;;;17.50;99.90;;;;;;5013745;28;20045;-74
2022/06/12 04:42:32;;;;;;;4.15;2.03;;;17.40;99.90;;;;;;5021474;28;20392;-73
2022/06/12 04:45:00;;;;;;;4.47;2.10;;;17.60;99.90;;;;;;5021884;28;20029;-74
2022/06/12 04:47:28;;;;;;;4.72;1.88;;;17.50;99.90;;;;;;5024044;28;20075;-74
2022/06/12 04:49:55;;;;;;;3.58;2.05;;;17.40;99.90;;;;;;5024231;28;20076;-74
2022/06/12 04:52:24;;;;;;;3.28;2.00;;;17.20;99.90;;;;;;5024035;28;20036;-74
2022/06/12 04:54:50;;;;;;;4.18;1.85;;;17.30;99.90;;;;;;5015661;28;20445;-73
2022/06/12 04:57:17;;;;;;;4.80;2.17;;;17.00;99.90;;;;;;5021846;28;20033;-74
2022/06/12 04:59:44;;;;;;;4.10;2.00;;;16.90;99.90;;;;;;5018778;28;21208;-74
2022/06/12 05:02:10;;;;;;;4.57;1.80;;;16.90;99.90;;;;;;5017106;28;20469;-74
2022/06/12 05:04:37;;;;;;;3.15;1.60;;;17.10;99.90;;;;;;5013086;28;20034;-74
2022/06/12 05:07:04;;;;;;;3.42;1.85;;;17.10;99.90;;;;;;5020368;28;20078;-74
2022/06/12 05:09:33;;;;;;;3.20;1.77;;;17.10;99.90;;;;;;5022443;28;20925;-74
2022/06/12 05:11:59;;;;;;;3.60;1.70;;;17.10;99.90;;;;;;5023821;28;20411;-74
2022/06/12 05:14:25;;;;;;;3.50;2.00;;;17.00;99.90;;;;;;5018676;28;20014;-74
2022/06/12 05:16:56;;;;;;;3.60;2.00;;;17.10;99.90;;;;;;5023154;28;20029;-74
2022/06/12 05:19:25;;;;;;;4.43;1.90;;;17.00;99.90;;;;;;5022465;28;20064;-73
2022/06/12 05:21:51;;;;;;;4.55;2.50;;;17.10;99.90;;;;;;5023087;28;20036;-73
2022/06/12 05:24:17;;;;;;;3.78;1.60;;;17.20;99.90;;;;;;5023009;28;20472;-73
2022/06/12 05:26:45;;;;;;;3.88;1.77;;;17.40;99.90;;;;;;5022257;28;20037;-72
2022/06/12 05:29:15;;;;;;;4.40;1.70;;;17.50;99.90;;;;;;5019400;28;20078;-73
2022/06/12 05:31:41;;;;;;;3.05;1.48;;;17.60;99.90;;;;;;5019746;28;20049;-73
2022/06/12 05:34:06;;;;;;;5.55;2.00;;;17.50;99.90;;;;;;5024043;28;20030;-73
2022/06/12 05:36:32;;;;;;;8.25;1.83;;;17.60;99.90;;;;;;5012237;28;20475;-72
2022/06/12 05:38:58;;;;;;;2.95;1.70;;;17.60;99.90;;;;;;5026808;28;20381;-71
2022/06/12 05:41:24;;;;;;;4.93;1.70;;;17.70;99.90;;;;;;5020757;28;20550;-72
2022/06/12 05:43:49;;;;;;;3.53;1.65;;;17.60;99.90;;;;;;5010902;28;20037;-72
2022/06/12 05:46:16;;;;;;;2.65;1.33;;;17.80;99.90;;;;;;5020653;28;20112;-73
2022/06/12 05:48:43;;;;;;;4.53;1.35;;;18.00;99.30;;;;;;5023763;28;20025;-72
2022/06/12 05:51:12;;;;;;;4.68;1.98;;;18.20;98.10;;;;;;5022901;28;20102;-74
2022/06/12 05:53:38;;;;;;;3.88;1.65;;;18.30;98.50;;;;;;5017043;28;20037;-75
2022/06/12 05:56:09;;;;;;;3.13;1.60;;;18.40;98.50;;;;;;5019917;28;20039;-73
2022/06/12 05:58:36;;;;;;;4.45;1.80;;;18.40;98.70;;;;;;5020542;28;20041;-73
2022/06/12 06:01:04;;;;;;;6.75;2.30;;;18.50;99.70;;;;;;5017993;28;20396;-75
2022/06/12 06:03:30;;;;;;;3.53;1.92;;;18.40;99.90;;;;;;5023862;28;20068;-73
2022/06/12 06:05:55;;;;;;;2.92;1.48;;;18.30;99.70;;;;;;5014425;28;20056;-73
2022/06/12 06:08:21;;;;;;;5.57;1.88;;;18.30;99.30;;;;;;5023510;28;20108;-73
2022/06/12 06:10:47;;;;;;;5.10;1.92;;;18.30;99.60;;;;;;5017556;28;20045;-75
2022/06/12 06:13:13;;;;;;;4.88;1.70;;;18.30;99.90;;;;;;5021525;28;20093;-72
2022/06/12 06:15:39;;;;;;;8.90;1.80;;;18.20;99.90;;;;;;5013168;28;20034;-74
2022/06/12 06:18:06;;;;;;;3.60;1.85;;;18.30;99.90;;;;;;5020899;28;20026;-73
2022/06/12 06:20:34;;;;;;;4.25;2.33;;;18.50;99.70;;;;;;5018884;28;20061;-73
2022/06/12 06:22:59;;;;;;;3.53;1.60;;;18.60;99.90;;;;;;5017125;28;20064;-73
2022/06/12 06:25:27;;;;;;;5.38;1.52;;;18.60;99.80;;;;;;5027478;28;20038;-73
2022/06/12 06:27:53;;;;;;;4.88;1.85;;;18.80;96.90;;;;;;5009323;28;20025;-73
2022/06/12 06:30:21;;;;;;;3.75;1.67;;;18.90;96.10;;;;;;5015562;28;20129;-73
2022/06/12 06:32:46;;;;;;;3.88;1.50;;;19.00;96.40;;;;;;5026014;28;20420;-74
2022/06/12 06:35:13;;;;;;;5.28;2.10;;;19.00;95.50;;;;;;5025945;28;20044;-74
2022/06/12 06:37:39;;;;;;;3.45;1.90;;;19.10;95.10;;;;;;5019086;28;20063;-73
2022/06/12 06:40:07;;;;;;;3.97;1.83;;;19.10;95.20;;;;;;5026188;28;20367;-73
2022/06/12 06:42:33;;;;;;;3.13;1.83;;;19.20;95.00;;;;;;5020725;28;20037;-73
2022/06/12 06:47:43;;;;;;;2.65;1.48;;;19.30;94.50;;;;;;5022115;28;20167;-74
2022/06/12 06:50:12;;;;;;;5.10;1.77;;;19.30;94.10;;;;;;5018404;28;20676;-73
2022/06/12 06:52:37;;;;;;;4.32;1.67;;;19.50;94.60;;;;;;5017597;28;20049;-73
2022/06/12 06:55:04;;;;;;;2.95;1.63;;;19.60;94.60;;;;;;5021706;28;20045;-73
2022/06/12 06:57:29;;;;;;;3.72;1.60;;;19.80;95.40;;;;;;5023506;28;20064;-74
2022/06/12 06:59:55;;;;;;;5.93;1.65;;;19.90;95.60;;;;;;5027127;28;20515;-73
2022/06/12 07:02:21;;;;;;;5.15;1.58;;;20.10;94.50;;;;;;5017773;28;20116;-73
2022/06/12 07:04:47;;;;;;;4.28;1.65;;;20.30;94.20;;;;;;5029268;28;20033;-73
2022/06/12 07:07:13;;;;;;;4.97;1.70;;;20.50;94.40;;;;;;5026244;28;20582;-73
2022/06/12 07:09:40;;;;;;;3.65;1.50;;;20.70;94.00;;;;;;5027816;28;20045;-74
2022/06/12 07:12:06;;;;;;;3.83;1.67;;;21.00;93.90;;;;;;5028674;28;20029;-74
2022/06/12 07:14:32;;;;;;;3.92;1.98;;;21.20;94.00;;;;;;5031105;28;20044;-73
2022/06/12 07:16:59;;;;;;;3.85;1.50;;;21.50;93.60;;;;;;5026680;28;20030;-73
2022/06/12 07:19:26;;;;;;;3.00;1.90;;;21.70;91.90;;;;;;5026752;28;20035;-74
2022/06/12 07:21:52;;;;;;;6.38;2.00;;;21.90;92.30;;;;;;5030241;28;20052;-73
2022/06/12 07:24:18;;;;;;;7.18;2.60;;;22.10;91.50;;;;;;5027292;28;20021;-73
2022/06/12 07:26:46;;;;;;;3.30;1.60;;;22.30;91.70;;;;;;5028161;28;20037;-73
2022/06/12 07:29:13;;;;;;;2.60;1.45;;;22.60;91.00;;;;;;5030148;28;20045;-74
2022/06/12 07:31:40;;;;;;;3.90;2.15;;;23.30;90.70;;;;;;5026980;28;20049;-73
2022/06/12 07:34:06;;;;;;;4.30;1.95;;;24.10;90.50;;;;;;5029821;28;20040;-74
2022/06/12 07:36:35;;;;;;;3.15;1.80;;;24.90;89.10;;;;;;5026747;28;20026;-73
2022/06/12 07:39:01;;;;;;;3.03;1.50;;;25.70;84.90;;;;;;5029579;28;20101;-74
2022/06/12 07:41:26;;;;;;;4.20;1.70;;;26.50;84.10;;;;;;5030837;28;20104;-74
2022/06/12 07:43:52;;;;;;;3.85;1.70;;;26.80;82.80;;;;;;5029822;28;20033;-73
2022/06/12 07:46:19;;;;;;;3.05;1.63;;;27.00;82.50;;;;;;5028602;28;20045;-74
2022/06/12 07:48:46;;;;;;;4.22;1.50;;;27.60;82.80;;;;;;5030040;28;20495;-74
2022/06/12 07:51:17;;;;;;;3.67;1.83;;;26.90;83.00;;;;;;5027975;28;20075;-74
2022/06/12 07:53:44;;;;;;;2.90;1.70;;;25.80;82.90;;;;;;5015802;28;20037;-74
2022/06/12 07:56:10;;;;;;;3.45;1.70;;;25.50;83.30;;;;;;5030153;28;20033;-73
2022/06/12 07:58:37;;;;;;;3.47;1.80;;;25.10;84.70;;;;;;5029041;28;20048;-73
2022/06/12 08:01:06;;;;;;;3.58;1.63;;;24.90;85.70;;;;;;5029058;28;20141;-73
2022/06/12 08:03:31;;;;;;;3.30;1.95;;;24.90;85.90;;;;;;5026610;28;20047;-74
2022/06/12 08:05:58;;;;;;;3.53;1.80;;;25.00;85.00;;;;;;5021832;28;20116;-74
2022/06/12 08:08:25;;;;;;;4.07;1.98;;;24.90;84.80;;;;;;5019392;28;20026;-74
2022/06/12 08:10:51;;;;;;;3.65;2.00;;;24.10;85.00;;;;;;5024908;28;20064;-74
2022/06/12 08:13:17;;;;;;;4.75;1.90;;;24.30;86.50;;;;;;5025365;28;20037;-73
2022/06/12 08:15:45;;;;;;;4.57;1.83;;;24.50;85.60;;;;;;5025779;28;20099;-74
2022/06/12 08:18:12;;;;;;;3.63;1.70;;;24.40;83.70;;;;;;5026867;28;20029;-74
2022/06/12 08:20:45;;;;;;;4.18;1.83;;;24.60;83.80;;;;;;5026424;28;20037;-73
2022/06/12 08:23:33;;;;;;;4.43;1.60;;;24.60;84.90;;;;;;5023433;28;20537;-74
2022/06/12 08:26:12;;;;;;;5.30;1.98;;;24.60;84.40;;;;;;5023941;28;20061;-73
2022/06/12 08:28:40;;;;;;;4.00;1.75;;;24.60;86.80;;;;;;5022010;28;20039;-74
2022/06/12 08:31:08;;;;;;;4.82;1.77;;;24.90;86.60;;;;;;5017576;28;20054;-74
2022/06/12 08:33:37;;;;;;;4.43;1.92;;;24.90;83.60;;;;;;5026029;28;20479;-75
2022/06/12 08:36:04;;;;;;;3.55;1.65;;;24.70;84.20;;;;;;5024348;28;20037;-73
2022/06/12 08:38:30;;;;;;;5.38;1.88;;;24.60;85.90;;;;;;5022221;28;20069;-74
2022/06/12 08:41:15;;;;;;;2.50;1.60;;;24.50;84.20;;;;;;5026370;28;20549;-74
2022/06/12 08:43:58;;;;;;;4.00;1.80;;;24.80;84.90;;;;;;5022627;28;20037;-74
2022/06/12 08:46:41;;;;;;;6.25;2.00;;;25.10;85.50;;;;;;5026111;28;20484;-74
2022/06/12 08:49:45;;;;;;;3.08;1.83;;;25.50;85.90;;;;;;5024198;28;20056;-73
2022/06/12 08:52:36;;;;;;;5.43;1.70;;;25.40;84.30;;;;;;5014738;28;20488;-73
2022/06/12 08:55:14;;;;;;;3.25;1.88;;;25.40;83.20;;;;;;4996200;28;20038;-73
2022/06/12 08:58:04;;;;;;;3.38;1.83;;;25.80;83.90;;;;;;5023391;28;20048;-73
2022/06/12 09:00:35;;;;;;;4.10;1.75;;;25.60;83.50;;;;;;5022212;28;20133;-73
2022/06/12 09:03:02;;;;;;;3.55;1.60;;;26.00;83.20;;;;;;5020307;28;20022;-73
2022/06/12 09:05:49;;;;;;;2.78;1.45;;;26.30;83.20;;;;;;5021903;28;20033;-73
2022/06/12 09:08:29;;;;;;;3.15;1.65;;;26.50;81.50;;;;;;5015093;28;20056;-73
2022/06/12 09:11:13;;;;;;;3.08;1.50;;;26.30;81.50;;;;;;5021933;28;20045;-73
2022/06/12 09:13:57;;;;;;;3.70;2.00;;;26.70;80.10;;;;;;5024222;28;20116;-75
2022/06/12 09:16:27;;;;;;;;;;;26.50;82.70;;;;;;5023629;28;20033;-73
2022/06/12 09:19:12;;;;;;;4.35;1.90;;;26.20;79.80;;;;;;5018630;28;20375;-74
2022/06/12 09:21:45;;;;;;;2.65;1.50;;;26.40;79.50;;;;;;5020932;28;20075;-73
2022/06/12 09:24:14;;;;;;;3.88;1.60;;;26.60;80.50;;;;;;5020785;28;20033;-74
2022/06/12 09:26:43;;;;;;;3.83;1.73;;;27.10;81.50;;;;;;5021278;28;20040;-73
2022/06/12 09:29:21;;;;;;;3.85;1.77;;;27.30;79.10;;;;;;5014096;28;20083;-73
2022/06/12 09:32:01;;;;;;;2.25;1.27;;;27.60;80.20;;;;;;5022205;28;20430;-74
2022/06/12 09:34:44;;;;;;;2.97;1.48;;;27.80;77.60;;;;;;5014451;28;20026;-74
2022/06/12 09:40:32;;;;;;;2.63;1.40;;;27.30;78.90;;;;;;5023814;28;20765;-74
2022/06/12 09:43:05;;;;;;;2.42;1.35;;;27.70;76.20;;;;;;5011089;28;20099;-74
2022/06/12 09:45:54;;;;;;;3.15;1.60;;;27.60;76.00;;;;;;5023072;28;20034;-74
2022/06/12 09:48:45;;;;;;;3.50;1.88;;;27.50;79.00;;;;;;5023917;28;20052;-74
2022/06/12 09:51:29;;;;;;;3.72;1.60;;;27.70;77.40;;;;;;5017850;28;20072;-73
2022/06/12 09:54:20;;;;;;;2.88;1.40;;;27.70;78.70;;;;;;5023101;28;20128;-74
2022/06/12 09:57:17;;;;;;;3.63;1.60;;;27.80;79.40;;;;;;5022701;28;20040;-74
2022/06/12 09:59:55;;;;;;;3.22;1.45;;;27.80;74.00;;;;;;5016140;28;20037;-74
2022/06/12 10:02:34;;;;;;;3.30;1.70;;;27.90;76.90;;;;;;5012638;28;20029;-74
2022/06/12 10:05:20;;;;;;;3.35;1.50;;;28.10;77.20;;;;;;5011280;28;20034;-74
2022/06/12 10:07:52;;;;;;;5.88;1.70;;;28.40;78.10;;;;;;5011850;28;20495;-74
2022/06/12 10:10:41;;;;;;;2.38;1.33;;;28.30;79.30;;;;;;5021205;28;20037;-75
2022/06/12 10:13:11;;;;;;;2.92;1.50;;;28.40;77.30;;;;;;5022586;28;20029;-74
2022/06/12 10:15:45;;;;;;;3.08;1.27;;;28.60;78.30;;;;;;5023320;28;20057;-74
2022/06/12 10:18:40;;;;;;;2.08;1.33;;;28.70;79.40;;;;;;5023511;28;20037;-75
2022/06/12 10:21:15;;;;;;;2.78;1.30;;;28.50;79.40;;;;;;4982919;28;20040;-75
2022/06/12 10:23:41;;;;;;;3.25;1.50;;;28.90;77.40;;;;;;5022997;28;20049;-74
2022/06/12 10:26:28;;;;;;;2.80;1.35;;;28.80;77.00;;;;;;5021774;28;20087;-74
2022/06/12 10:29:06;;;;;;;5.45;1.40;;;28.40;76.50;;;;;;5019507;28;20034;-74
2022/06/12 10:31:43;;;;;;;2.40;1.40;;;28.60;79.50;;;;;;5017658;28;20143;-74
2022/06/12 10:34:14;;;;;;;93.10;6.75;;;28.60;79.10;;;;;;5016670;28;20452;-74
2022/06/12 10:36:40;;;;;;;4.97;1.77;;;28.90;77.90;;;;;;5024145;28;20052;-74
2022/06/12 10:39:08;;;;;;;1.88;0.98;;;28.70;77.00;;;;;;5024587;28;20038;-74
2022/06/12 10:42:01;;;;;;;3.83;1.40;;;29.00;79.40;;;;;;5020548;28;20045;-75
2022/06/12 10:44:44;;;;;;;5.18;1.30;;;29.20;78.80;;;;;;5019545;28;20029;-74
2022/06/12 10:47:18;;;;;;;2.22;1.25;;;29.30;79.70;;;;;;5026092;28;20029;-74
2022/06/12 10:49:44;;;;;;;3.58;1.40;;;29.40;78.40;;;;;;5020597;28;20049;-74
2022/06/12 10:52:22;;;;;;;2.53;1.55;;;29.30;79.30;;;;;;5025384;28;20029;-74
2022/06/12 10:54:50;;;;;;;2.35;1.25;;;29.50;78.30;;;;;;5026977;28;20083;-74
2022/06/12 10:57:21;;;;;;;2.95;1.60;;;29.60;79.40;;;;;;5026699;28;20034;-74
2022/06/12 10:59:54;;;;;;;2.38;1.40;;;29.90;77.70;;;;;;5019183;28;20061;-74
2022/06/12 11:02:51;;;;;;;3.00;1.35;;;29.90;77.30;;;;;;5024253;28;20103;-74
2022/06/12 11:05:32;;;;;;;2.80;1.73;;;29.70;79.30;;;;;;5018691;28;20115;-74
2022/06/12 11:08:18;;;;;;;3.53;1.15;;;30.00;80.10;;;;;;5019391;28;20091;-74
2022/06/12 11:11:23;;;;;;;2.70;1.00;;;30.10;75.80;;;;;;5024846;28;20133;-74
2022/06/12 11:14:26;;;;;;;1.63;0.98;;;29.90;74.10;;;;;;5022402;28;20033;-74
2022/06/12 11:17:14;;;;;;;1.88;0.90;;;30.20;73.70;;;;;;5020055;28;20038;-74
2022/06/12 11:19:49;;;;;;;3.40;1.00;;;30.20;73.70;;;;;;5021229;28;20754;-74
2022/06/12 11:22:38;;;;;;;1.65;0.90;;;30.40;72.80;;;;;;5017254;28;20026;-77
2022/06/12 11:25:31;;;;;;;0.75;0.60;;;30.50;69.30;;;;;;5020991;28;20080;-76
2022/06/12 11:28:25;;;;;;;4.05;0.82;;;30.40;69.90;;;;;;5014386;28;20038;-74
2022/06/12 11:31:46;;;;;;;3.97;1.10;;;30.40;70.40;;;;;;5016489;28;21889;-75
2022/06/12 11:34:32;;;;;;;3.67;1.20;;;30.60;73.30;;;;;;5017100;28;20071;-75
2022/06/12 11:37:28;;;;;;;3.03;1.20;;;30.20;73.30;;;;;;5019792;28;20026;-75
2022/06/12 11:40:06;;;;;;;3.92;1.33;;;30.40;72.60;;;;;;5021229;28;20046;-74
2022/06/12 11:43:00;;;;;;;2.67;1.30;;;30.50;72.10;;;;;;5017789;28;20045;-76
2022/06/12 11:45:41;;;;;;;9.13;1.75;;;30.70;72.50;;;;;;5014666;28;20025;-75
2022/06/12 11:48:20;;;;;;;3.25;1.20;;;30.80;73.20;;;;;;5017171;28;20096;-74
2022/06/12 11:50:50;;;;;;;2.20;0.85;;;31.00;75.10;;;;;;5024116;28;21016;-76
2022/06/12 11:53:43;;;;;;;2.25;1.15;;;30.90;72.90;;;;;;5022245;28;20026;-79
2022/06/12 11:56:18;;;;;;;2.13;1.05;;;30.90;73.80;;;;;;5020012;28;20057;-75
2022/06/12 11:59:02;;;;;;;2.30;0.98;;;30.90;72.90;;;;;;5018029;28;20071;-76
2022/06/12 12:01:57;;;;;;;2.28;1.00;;;31.20;74.30;;;;;;5013324;28;20029;-75
2022/06/12 12:04:56;;;;;;;2.45;1.17;;;31.40;75.00;;;;;;5016555;28;20112;-77
2022/06/12 12:07:28;;;;;;;4.35;1.25;;;31.30;73.20;;;;;;5009488;28;20392;-78
2022/06/12 12:09:57;;;;;;;1.90;1.10;;;31.10;72.60;;;;;;5016255;28;20042;-77
2022/06/12 12:12:28;;;;;;;2.47;1.23;;;31.30;74.80;;;;;;5023719;28;20112;-76
2022/06/12 12:14:57;;;;;;;2.28;1.00;;;31.30;71.40;;;;;;5022847;28;20041;-79
2022/06/12 12:17:36;;;;;;;3.67;1.08;;;31.50;72.80;;;;;;5023704;28;20660;-78
2022/06/12 12:20:16;;;;;;;2.88;1.23;;;31.50;71.90;;;;;;5019414;28;20038;-78
2022/06/12 12:22:54;;;;;;;2.22;0.82;;;31.40;74.50;;;;;;5024417;28;20332;-78
2022/06/12 12:26:01;;;;;;;2.53;1.20;;;31.40;69.30;;;;;;5022334;28;20034;-78
2022/06/12 12:29:00;;;;;;;3.15;1.30;;;31.10;68.90;;;;;;4988438;28;20133;-78
2022/06/12 12:31:27;;;;;;;2.40;1.17;;;31.40;72.00;;;;;;4963569;28;1159146;-78
2022/06/12 12:33:55;;;;;;;1.92;1.17;;;31.50;71.60;;;;;;5018707;28;20432;-78
2022/06/12 12:42:39;;;;;;;3.15;1.48;;;31.60;71.80;;;;;;5025245;28;20091;-77
2022/06/12 12:45:31;;;;;;;1.92;1.00;;;31.40;72.10;;;;;;5019720;28;20049;-77
2022/06/12 12:48:01;;;;;;;2.28;1.30;;;31.70;70.90;;;;;;5019370;28;20033;-77
2022/06/12 12:50:27;;;;;;;1.67;0.90;;;31.70;71.80;;;;;;5021678;28;20077;-77
2022/06/12 12:52:57;;;;;;;2.15;1.13;;;31.70;72.70;;;;;;5028571;28;20045;-77
2022/06/12 12:55:35;;;;;;;2.50;1.10;;;31.90;72.80;;;;;;5024305;28;20034;-77
2022/06/12 12:58:18;;;;;;;2.72;1.20;;;31.70;71.50;;;;;;5024954;28;20030;-77
2022/06/12 13:00:45;;;;;;;2.28;1.15;;;31.90;71.40;;;;;;5022779;28;20132;-77
2022/06/12 13:03:29;;;;;;;4.60;1.20;;;32.20;71.40;;;;;;5024560;28;20025;-76
2022/06/12 13:06:16;;;;;;;2.47;1.30;;;31.90;71.90;;;;;;5016374;28;20033;-77
2022/06/12 13:09:21;;;;;;;1.70;1.08;;;31.70;70.60;;;;;;4999924;28;20068;-76
2022/06/12 13:12:11;;;;;;;2.83;1.27;;;31.60;71.50;;;;;;5017014;28;20529;-76
2022/06/12 13:14:55;;;;;;;2.25;1.10;;;31.50;72.00;;;;;;5019487;28;20057;-76
2022/06/12 13:17:37;;;;;;;2.03;0.93;;;31.80;71.40;;;;;;5014061;28;20371;-76
2022/06/12 13:20:29;;;;;;;2.50;1.10;;;31.60;70.80;;;;;;5015981;28;20579;-76
2022/06/12 13:23:06;;;;;;;1.92;1.15;;;31.60;70.10;;;;;;5022365;28;20030;-76
2022/06/12 13:25:38;;;;;;;4.40;1.20;;;32.00;70.60;;;;;;5025426;28;20091;-76
2022/06/12 13:28:03;;;;;;;1.98;1.00;;;31.60;70.00;;;;;;5027267;28;20108;-77
2022/06/12 13:30:34;;;;;;;2.75;1.02;;;31.60;69.90;;;;;;5020930;28;20128;-77
2022/06/12 13:33:18;;;;;;;2.05;1.02;;;31.60;69.10;;;;;;5018579;28;20033;-76
2022/06/12 13:35:57;;;;;;;1.83;0.80;;;31.50;69.40;;;;;;5016257;28;20124;-77
2022/06/12 13:38:48;;;;;;;3.90;1.02;;;31.80;69.80;;;;;;5026441;28;20438;-76
2022/06/12 13:41:43;;;;;;;3.25;1.10;;;31.90;70.00;;;;;;5007589;28;20060;-77
2022/06/12 13:44:28;;;;;;;3.78;1.27;;;31.90;70.40;;;;;;5021603;28;20073;-76
2022/06/12 13:46:56;;;;;;;2.55;1.00;;;32.10;69.70;;;;;;5023828;28;20044;-77
2022/06/12 13:49:44;;;;;;;3.25;1.35;;;31.80;68.80;;;;;;5025092;28;20045;-77
2022/06/12 13:52:36;;;;;;;2.47;1.40;;;31.70;70.10;;;;;;5025891;28;20028;-76